sensor_id;sensor_type;location;lat;lon;timestamp;temperature;humidity
25923;DHT22;13725;51.170;4.442;2023-11-18T00:01:24;7.20;99.90
25923;DHT22;13725;51.170;4.442;2023-11-18T00:03:50;7.20;99.90
25923;DHT22;13725;51.170;4.442;2023-11-18T00:06:16;7.20;99.90
25923;DHT22;13725;51.170;4.442;2023-11-18T00:08:42;7.20;99.90
25923;DHT22;13725;51.170;4.442;2023-11-18T00:11:08;7.20;99.90
25923;DHT22;13725;51.170;4.442;2023-11-18T00:13:36;7.20;99.90
25923;DHT22;13725;51.170;4.442;2023-11-18T00:16:05;7.20;99.90
25923;DHT22;13725;51.170;4.442;2023-11-18T00:18:31;7.30;99.90
25923;DHT22;13725;51.170;4.442;2023-11-18T00:20:58;7.30;99.90
25923;DHT22;13725;51.170;4.442;2023-11-18T00:23:23;7.30;99.90
25923;DHT22;13725;51.170;4.442;2023-11-18T00:25:52;7.30;99.90
25923;DHT22;13725;51.170;4.442;2023-11-18T00:28:18;7.20;99.90
25923;DHT22;13725;51.170;4.442;2023-11-18T00:30:45;7.20;99.90
25923;DHT22;13725;51.170;4.442;2023-11-18T00:33:11;7.20;99.90
25923;DHT22;13725;51.170;4.442;2023-11-18T00:35:37;7.20;99.90
25923;DHT22;13725;51.170;4.442;2023-11-18T00:38:02;7.20;99.90
25923;DHT22;13725;51.170;4.442;2023-11-18T00:40:28;7.10;99.90
25923;DHT22;13725;51.170;4.442;2023-11-18T00:42:57;7.20;99.90
25923;DHT22;13725;51.170;4.442;2023-11-18T00:45:23;7.10;99.90
25923;DHT22;13725;51.170;4.442;2023-11-18T00:47:48;7.20;99.90
25923;DHT22;13725;51.170;4.442;2023-11-18T00:50:14;7.20;99.90
25923;DHT22;13725;51.170;4.442;2023-11-18T00:52:40;7.10;99.90
25923;DHT22;13725;51.170;4.442;2023-11-18T00:55:09;7.20;99.90
25923;DHT22;13725;51.170;4.442;2023-11-18T00:57:37;7.10;99.90
25923;DHT22;13725;51.170;4.442;2023-11-18T01:00:08;7.20;99.90
25923;DHT22;13725;51.170;4.442;2023-11-18T01:02:40;7.20;99.90
25923;DHT22;13725;51.170;4.442;2023-11-18T01:05:06;7.20;99.90
25923;DHT22;13725;51.170;4.442;2023-11-18T01:07:34;7.20;99.90
25923;DHT22;13725;51.170;4.442;2023-11-18T01:10:01;7.20;99.90
25923;DHT22;13725;51.170;4.442;2023-11-18T01:12:27;7.20;99.90
25923;DHT22;13725;51.170;4.442;2023-11-18T01:14:53;7.30;99.90
25923;DHT22;13725;51.170;4.442;2023-11-18T01:17:18;7.30;99.90
25923;DHT22;13725;51.170;4.442;2023-11-18T01:19:47;7.50;99.90
25923;DHT22;13725;51.170;4.442;2023-11-18T01:22:13;7.30;99.90
25923;DHT22;13725;51.170;4.442;2023-11-18T01:24:39;7.30;99.90
25923;DHT22;13725;51.170;4.442;2023-11-18T01:27:05;7.40;99.90
25923;DHT22;13725;51.170;4.442;2023-11-18T01:29:35;7.40;99.90
25923;DHT22;13725;51.170;4.442;2023-11-18T01:32:02;7.40;99.90
25923;DHT22;13725;51.170;4.442;2023-11-18T01:34:37;7.40;99.90
25923;DHT22;13725;51.170;4.442;2023-11-18T01:37:04;7.40;99.90
25923;DHT22;13725;51.170;4.442;2023-11-18T01:39:34;7.30;99.90
25923;DHT22;13725;51.170;4.442;2023-11-18T01:41:59;7.30;99.90
25923;DHT22;13725;51.170;4.442;2023-11-18T01:44:26;7.30;99.90
25923;DHT22;13725;51.170;4.442;2023-11-18T01:46:55;7.30;99.90
25923;DHT22;13725;51.170;4.442;2023-11-18T01:49:21;7.30;99.90
25923;DHT22;13725;51.170;4.442;2023-11-18T01:51:50;7.30;99.90
25923;DHT22;13725;51.170;4.442;2023-11-18T01:54:16;7.20;99.90
25923;DHT22;13725;51.170;4.442;2023-11-18T01:56:47;7.30;99.90
25923;DHT22;13725;51.170;4.442;2023-11-18T01:59:14;7.20;99.90
25923;DHT22;13725;51.170;4.442;2023-11-18T02:01:52;7.30;99.90
25923;DHT22;13725;51.170;4.442;2023-11-18T02:04:20;7.20;99.90
25923;DHT22;13725;51.170;4.442;2023-11-18T02:06:48;7.20;99.90
25923;DHT22;13725;51.170;4.442;2023-11-18T02:09:15;7.20;99.90
25923;DHT22;13725;51.170;4.442;2023-11-18T02:14:20;7.10;99.90
25923;DHT22;13725;51.170;4.442;2023-11-18T02:16:49;7.20;99.90
25923;DHT22;13725;51.170;4.442;2023-11-18T02:19:20;7.30;99.90
25923;DHT22;13725;51.170;4.442;2023-11-18T02:21:47;7.20;99.90
25923;DHT22;13725;51.170;4.442;2023-11-18T02:24:27;7.10;99.90
25923;DHT22;13725;51.170;4.442;2023-11-18T02:26:57;7.10;99.90
25923;DHT22;13725;51.170;4.442;2023-11-18T02:29:25;7.10;99.90
25923;DHT22;13725;51.170;4.442;2023-11-18T02:31:53;7.20;99.90
25923;DHT22;13725;51.170;4.442;2023-11-18T02:34:27;7.20;99.90
25923;DHT22;13725;51.170;4.442;2023-11-18T02:36:56;7.20;99.90
25923;DHT22;13725;51.170;4.442;2023-11-18T02:39:43;7.30;99.90
25923;DHT22;13725;51.170;4.442;2023-11-18T02:42:12;7.30;99.90
25923;DHT22;13725;51.170;4.442;2023-11-18T02:44:39;7.30;99.90
25923;DHT22;13725;51.170;4.442;2023-11-18T02:47:05;7.20;99.90
25923;DHT22;13725;51.170;4.442;2023-11-18T02:49:32;7.20;99.90
25923;DHT22;13725;51.170;4.442;2023-11-18T02:51:59;7.20;99.90
25923;DHT22;13725;51.170;4.442;2023-11-18T02:54:25;7.20;99.90
25923;DHT22;13725;51.170;4.442;2023-11-18T02:56:52;7.10;99.90
25923;DHT22;13725;51.170;4.442;2023-11-18T02:59:17;7.00;99.90
25923;DHT22;13725;51.170;4.442;2023-11-18T03:01:43;7.00;99.90
25923;DHT22;13725;51.170;4.442;2023-11-18T03:04:10;7.00;99.90
25923;DHT22;13725;51.170;4.442;2023-11-18T03:06:35;6.90;99.90
25923;DHT22;13725;51.170;4.442;2023-11-18T03:09:02;6.90;99.90
25923;DHT22;13725;51.170;4.442;2023-11-18T03:11:33;7.00;99.90
25923;DHT22;13725;51.170;4.442;2023-11-18T03:13:59;7.00;99.90
25923;DHT22;13725;51.170;4.442;2023-11-18T03:16:25;6.90;99.90
25923;DHT22;13725;51.170;4.442;2023-11-18T03:18:51;6.80;99.90
25923;DHT22;13725;51.170;4.442;2023-11-18T03:21:17;6.80;99.90
25923;DHT22;13725;51.170;4.442;2023-11-18T03:23:45;6.70;99.90
25923;DHT22;13725;51.170;4.442;2023-11-18T03:26:10;6.70;99.90
25923;DHT22;13725;51.170;4.442;2023-11-18T03:28:37;6.70;99.90
25923;DHT22;13725;51.170;4.442;2023-11-18T03:31:06;6.70;99.90
25923;DHT22;13725;51.170;4.442;2023-11-18T03:33:33;6.70;99.90
25923;DHT22;13725;51.170;4.442;2023-11-18T03:35:58;6.90;99.90
25923;DHT22;13725;51.170;4.442;2023-11-18T03:38:25;6.80;99.90
25923;DHT22;13725;51.170;4.442;2023-11-18T03:40:51;6.90;99.90
25923;DHT22;13725;51.170;4.442;2023-11-18T03:43:18;6.90;99.90
25923;DHT22;13725;51.170;4.442;2023-11-18T03:45:43;6.90;99.90
25923;DHT22;13725;51.170;4.442;2023-11-18T03:48:09;6.90;99.90
25923;DHT22;13725;51.170;4.442;2023-11-18T03:50:40;6.90;99.90
25923;DHT22;13725;51.170;4.442;2023-11-18T03:53:06;6.90;99.90
25923;DHT22;13725;51.170;4.442;2023-11-18T03:55:32;6.90;99.90
25923;DHT22;13725;51.170;4.442;2023-11-18T03:57:58;6.90;99.90
25923;DHT22;13725;51.170;4.442;2023-11-18T04:00:24;6.80;99.90
25923;DHT22;13725;51.170;4.442;2023-11-18T04:02:58;6.80;99.90
25923;DHT22;13725;51.170;4.442;2023-11-18T04:05:24;6.70;99.90
25923;DHT22;13725;51.170;4.442;2023-11-18T04:07:50;6.70;99.90
25923;DHT22;13725;51.170;4.442;2023-11-18T04:10:16;6.80;99.90
25923;DHT22;13725;51.170;4.442;2023-11-18T04:12:43;6.90;99.90
25923;DHT22;13725;51.170;4.442;2023-11-18T04:15:12;6.90;99.90
25923;DHT22;13725;51.170;4.442;2023-11-18T04:17:38;6.90;99.90
25923;DHT22;13725;51.170;4.442;2023-11-18T04:20:04;6.80;99.90
25923;DHT22;13725;51.170;4.442;2023-11-18T04:22:34;6.80;99.90
25923;DHT22;13725;51.170;4.442;2023-11-18T04:24:59;6.90;99.90
25923;DHT22;13725;51.170;4.442;2023-11-18T04:27:25;6.90;99.90
25923;DHT22;13725;51.170;4.442;2023-11-18T04:29:51;6.80;99.90
25923;DHT22;13725;51.170;4.442;2023-11-18T04:32:16;6.80;99.90
25923;DHT22;13725;51.170;4.442;2023-11-18T04:34:42;6.70;99.90
25923;DHT22;13725;51.170;4.442;2023-11-18T04:37:08;6.70;99.90
25923;DHT22;13725;51.170;4.442;2023-11-18T04:39:34;6.80;99.90
25923;DHT22;13725;51.170;4.442;2023-11-18T04:42:01;6.80;99.90
25923;DHT22;13725;51.170;4.442;2023-11-18T04:44:27;6.90;99.90
25923;DHT22;13725;51.170;4.442;2023-11-18T04:46:52;6.90;99.90
25923;DHT22;13725;51.170;4.442;2023-11-18T04:49:18;6.90;99.90
25923;DHT22;13725;51.170;4.442;2023-11-18T04:51:44;6.90;99.90
25923;DHT22;13725;51.170;4.442;2023-11-18T04:54:10;7.00;99.90
25923;DHT22;13725;51.170;4.442;2023-11-18T04:56:36;7.00;99.90
25923;DHT22;13725;51.170;4.442;2023-11-18T04:59:05;6.90;99.90
25923;DHT22;13725;51.170;4.442;2023-11-18T05:01:32;7.00;99.90
25923;DHT22;13725;51.170;4.442;2023-11-18T05:03:59;7.00;99.90
25923;DHT22;13725;51.170;4.442;2023-11-18T05:06:25;7.00;99.90
25923;DHT22;13725;51.170;4.442;2023-11-18T05:08:52;7.00;99.90
25923;DHT22;13725;51.170;4.442;2023-11-18T05:11:17;7.00;99.90
25923;DHT22;13725;51.170;4.442;2023-11-18T05:13:43;7.00;99.90
25923;DHT22;13725;51.170;4.442;2023-11-18T05:16:09;7.00;99.90
25923;DHT22;13725;51.170;4.442;2023-11-18T05:18:36;7.00;99.90
25923;DHT22;13725;51.170;4.442;2023-11-18T05:21:03;7.00;99.90
25923;DHT22;13725;51.170;4.442;2023-11-18T05:23:34;7.00;99.90
25923;DHT22;13725;51.170;4.442;2023-11-18T05:25:59;7.00;99.90
25923;DHT22;13725;51.170;4.442;2023-11-18T05:28:25;7.00;99.90
25923;DHT22;13725;51.170;4.442;2023-11-18T05:30:51;7.00;99.90
25923;DHT22;13725;51.170;4.442;2023-11-18T05:33:18;6.90;99.90
25923;DHT22;13725;51.170;4.442;2023-11-18T05:35:46;7.00;99.90
25923;DHT22;13725;51.170;4.442;2023-11-18T05:38:16;7.00;99.90
25923;DHT22;13725;51.170;4.442;2023-11-18T05:40:47;7.10;99.90
25923;DHT22;13725;51.170;4.442;2023-11-18T05:43:32;7.10;99.90
25923;DHT22;13725;51.170;4.442;2023-11-18T05:46:06;7.10;99.90
25923;DHT22;13725;51.170;4.442;2023-11-18T05:48:44;7.10;99.90
25923;DHT22;13725;51.170;4.442;2023-11-18T05:51:11;7.20;99.90
25923;DHT22;13725;51.170;4.442;2023-11-18T05:53:41;7.20;99.90
25923;DHT22;13725;51.170;4.442;2023-11-18T05:56:09;7.10;99.90
25923;DHT22;13725;51.170;4.442;2023-11-18T05:58:35;7.10;99.90
25923;DHT22;13725;51.170;4.442;2023-11-18T06:01:00;7.10;99.90
25923;DHT22;13725;51.170;4.442;2023-11-18T06:03:26;7.10;99.90
25923;DHT22;13725;51.170;4.442;2023-11-18T06:05:52;7.20;99.90
25923;DHT22;13725;51.170;4.442;2023-11-18T06:08:18;7.10;99.90
25923;DHT22;13725;51.170;4.442;2023-11-18T06:10:43;7.30;99.90
25923;DHT22;13725;51.170;4.442;2023-11-18T06:13:12;7.10;99.90
25923;DHT22;13725;51.170;4.442;2023-11-18T06:15:38;7.20;99.90
25923;DHT22;13725;51.170;4.442;2023-11-18T06:18:05;7.20;99.90
25923;DHT22;13725;51.170;4.442;2023-11-18T06:20:33;7.20;99.90
25923;DHT22;13725;51.170;4.442;2023-11-18T06:22:58;7.50;99.90
25923;DHT22;13725;51.170;4.442;2023-11-18T06:25:24;7.30;99.90
25923;DHT22;13725;51.170;4.442;2023-11-18T06:27:51;7.30;99.90
25923;DHT22;13725;51.170;4.442;2023-11-18T06:30:18;7.30;99.90
25923;DHT22;13725;51.170;4.442;2023-11-18T06:32:45;7.30;99.90
25923;DHT22;13725;51.170;4.442;2023-11-18T06:35:12;7.30;99.90
25923;DHT22;13725;51.170;4.442;2023-11-18T06:37:41;7.30;99.90
25923;DHT22;13725;51.170;4.442;2023-11-18T06:40:08;7.20;99.90
25923;DHT22;13725;51.170;4.442;2023-11-18T06:42:42;7.20;99.90
25923;DHT22;13725;51.170;4.442;2023-11-18T06:45:08;7.30;99.90
25923;DHT22;13725;51.170;4.442;2023-11-18T06:47:38;7.40;99.90
25923;DHT22;13725;51.170;4.442;2023-11-18T06:50:09;7.40;99.90
25923;DHT22;13725;51.170;4.442;2023-11-18T06:52:38;7.40;99.90
25923;DHT22;13725;51.170;4.442;2023-11-18T06:55:04;7.40;99.90
25923;DHT22;13725;51.170;4.442;2023-11-18T06:57:30;7.40;99.90
25923;DHT22;13725;51.170;4.442;2023-11-18T06:59:56;7.60;99.90
25923;DHT22;13725;51.170;4.442;2023-11-18T07:02:22;7.40;99.90
25923;DHT22;13725;51.170;4.442;2023-11-18T07:04:47;7.40;99.90
25923;DHT22;13725;51.170;4.442;2023-11-18T07:07:13;7.30;99.90
25923;DHT22;13725;51.170;4.442;2023-11-18T07:09:39;7.40;99.90
25923;DHT22;13725;51.170;4.442;2023-11-18T07:12:05;7.50;99.90
25923;DHT22;13725;51.170;4.442;2023-11-18T07:14:31;7.50;99.90
25923;DHT22;13725;51.170;4.442;2023-11-18T07:16:57;7.60;99.90
25923;DHT22;13725;51.170;4.442;2023-11-18T07:19:24;7.60;99.90
25923;DHT22;13725;51.170;4.442;2023-11-18T07:21:50;7.80;99.90
25923;DHT22;13725;51.170;4.442;2023-11-18T07:24:16;7.60;99.90
25923;DHT22;13725;51.170;4.442;2023-11-18T07:26:43;7.60;99.90
25923;DHT22;13725;51.170;4.442;2023-11-18T07:29:10;7.70;99.90
25923;DHT22;13725;51.170;4.442;2023-11-18T07:31:37;7.60;99.90
25923;DHT22;13725;51.170;4.442;2023-11-18T07:34:03;7.70;99.90
25923;DHT22;13725;51.170;4.442;2023-11-18T07:36:31;7.70;99.90
25923;DHT22;13725;51.170;4.442;2023-11-18T07:38:57;7.80;99.90
25923;DHT22;13725;51.170;4.442;2023-11-18T07:41:27;7.80;99.90
25923;DHT22;13725;51.170;4.442;2023-11-18T07:43:54;7.80;99.90
25923;DHT22;13725;51.170;4.442;2023-11-18T07:46:22;7.80;99.90
25923;DHT22;13725;51.170;4.442;2023-11-18T07:48:52;7.90;99.90
25923;DHT22;13725;51.170;4.442;2023-11-18T07:51:18;7.90;99.90
25923;DHT22;13725;51.170;4.442;2023-11-18T07:53:47;7.90;99.90
25923;DHT22;13725;51.170;4.442;2023-11-18T07:56:13;7.90;99.90
25923;DHT22;13725;51.170;4.442;2023-11-18T07:58:42;7.90;99.90
25923;DHT22;13725;51.170;4.442;2023-11-18T08:01:11;7.80;99.90
25923;DHT22;13725;51.170;4.442;2023-11-18T08:03:37;7.80;99.90
25923;DHT22;13725;51.170;4.442;2023-11-18T08:06:04;7.70;99.90
25923;DHT22;13725;51.170;4.442;2023-11-18T08:08:33;7.70;99.90
25923;DHT22;13725;51.170;4.442;2023-11-18T08:10:58;7.70;99.90
25923;DHT22;13725;51.170;4.442;2023-11-18T08:13:25;7.80;99.90
25923;DHT22;13725;51.170;4.442;2023-11-18T08:15:52;7.70;99.90
25923;DHT22;13725;51.170;4.442;2023-11-18T08:18:18;7.70;99.90
25923;DHT22;13725;51.170;4.442;2023-11-18T08:20:44;7.80;99.90
25923;DHT22;13725;51.170;4.442;2023-11-18T08:23:10;7.80;99.90
25923;DHT22;13725;51.170;4.442;2023-11-18T08:25:35;7.80;99.90
25923;DHT22;13725;51.170;4.442;2023-11-18T08:28:02;7.80;99.90
25923;DHT22;13725;51.170;4.442;2023-11-18T08:30:29;7.80;99.90
25923;DHT22;13725;51.170;4.442;2023-11-18T08:32:55;7.80;99.90
25923;DHT22;13725;51.170;4.442;2023-11-18T08:35:20;7.90;99.90
25923;DHT22;13725;51.170;4.442;2023-11-18T08:37:47;7.80;99.90
25923;DHT22;13725;51.170;4.442;2023-11-18T08:40:13;7.80;99.90
25923;DHT22;13725;51.170;4.442;2023-11-18T08:42:47;7.90;99.90
25923;DHT22;13725;51.170;4.442;2023-11-18T08:45:19;7.90;99.90
25923;DHT22;13725;51.170;4.442;2023-11-18T08:47:48;7.90;99.90
25923;DHT22;13725;51.170;4.442;2023-11-18T08:50:15;7.80;99.90
25923;DHT22;13725;51.170;4.442;2023-11-18T08:52:43;8.10;99.90
25923;DHT22;13725;51.170;4.442;2023-11-18T08:55:16;8.00;99.90
25923;DHT22;13725;51.170;4.442;2023-11-18T08:57:51;8.00;99.90
25923;DHT22;13725;51.170;4.442;2023-11-18T09:00:30;8.00;99.90
25923;DHT22;13725;51.170;4.442;2023-11-18T09:03:16;7.90;99.90
25923;DHT22;13725;51.170;4.442;2023-11-18T09:06:00;7.90;99.90
25923;DHT22;13725;51.170;4.442;2023-11-18T09:08:34;8.00;99.90
25923;DHT22;13725;51.170;4.442;2023-11-18T09:11:16;7.90;99.90
25923;DHT22;13725;51.170;4.442;2023-11-18T09:13:46;7.90;99.90
25923;DHT22;13725;51.170;4.442;2023-11-18T09:16:19;7.90;99.90
25923;DHT22;13725;51.170;4.442;2023-11-18T09:18:48;7.90;99.90
25923;DHT22;13725;51.170;4.442;2023-11-18T09:21:14;7.90;99.90
25923;DHT22;13725;51.170;4.442;2023-11-18T09:23:42;8.10;99.90
25923;DHT22;13725;51.170;4.442;2023-11-18T09:26:09;8.00;99.90
25923;DHT22;13725;51.170;4.442;2023-11-18T09:28:36;8.00;99.90
25923;DHT22;13725;51.170;4.442;2023-11-18T09:31:06;8.10;99.90
25923;DHT22;13725;51.170;4.442;2023-11-18T09:33:36;8.20;99.90
25923;DHT22;13725;51.170;4.442;2023-11-18T09:36:05;8.10;99.90
25923;DHT22;13725;51.170;4.442;2023-11-18T09:38:38;8.10;99.90
25923;DHT22;13725;51.170;4.442;2023-11-18T09:41:09;8.10;99.90
25923;DHT22;13725;51.170;4.442;2023-11-18T09:43:42;8.00;99.90
25923;DHT22;13725;51.170;4.442;2023-11-18T09:46:13;8.10;99.90
25923;DHT22;13725;51.170;4.442;2023-11-18T09:48:46;8.10;99.90
25923;DHT22;13725;51.170;4.442;2023-11-18T09:51:25;8.10;99.90
25923;DHT22;13725;51.170;4.442;2023-11-18T09:53:59;8.10;99.90
25923;DHT22;13725;51.170;4.442;2023-11-18T09:56:30;8.20;99.90
25923;DHT22;13725;51.170;4.442;2023-11-18T09:59:18;8.20;99.90
25923;DHT22;13725;51.170;4.442;2023-11-18T10:01:54;8.20;99.90
25923;DHT22;13725;51.170;4.442;2023-11-18T10:04:23;8.20;99.90
25923;DHT22;13725;51.170;4.442;2023-11-18T10:06:56;8.30;99.90
25923;DHT22;13725;51.170;4.442;2023-11-18T10:09:23;8.20;99.90
25923;DHT22;13725;51.170;4.442;2023-11-18T10:12:03;8.20;99.90
25923;DHT22;13725;51.170;4.442;2023-11-18T10:14:35;8.30;99.90
25923;DHT22;13725;51.170;4.442;2023-11-18T10:17:05;8.30;99.90
25923;DHT22;13725;51.170;4.442;2023-11-18T10:19:54;8.30;99.90
25923;DHT22;13725;51.170;4.442;2023-11-18T10:22:26;8.30;99.90
25923;DHT22;13725;51.170;4.442;2023-11-18T10:24:54;8.40;99.90
25923;DHT22;13725;51.170;4.442;2023-11-18T10:27:27;8.40;99.90
25923;DHT22;13725;51.170;4.442;2023-11-18T10:29:57;8.50;99.90
25923;DHT22;13725;51.170;4.442;2023-11-18T10:32:23;8.40;99.90
25923;DHT22;13725;51.170;4.442;2023-11-18T10:34:57;8.30;99.90
25923;DHT22;13725;51.170;4.442;2023-11-18T10:37:26;8.30;99.90
25923;DHT22;13725;51.170;4.442;2023-11-18T10:39:56;8.30;99.90
25923;DHT22;13725;51.170;4.442;2023-11-18T10:42:27;8.30;99.90
25923;DHT22;13725;51.170;4.442;2023-11-18T10:44:57;8.30;99.90
25923;DHT22;13725;51.170;4.442;2023-11-18T10:47:27;8.30;99.90
25923;DHT22;13725;51.170;4.442;2023-11-18T10:49:54;8.40;99.90
25923;DHT22;13725;51.170;4.442;2023-11-18T10:52:22;8.30;99.90
25923;DHT22;13725;51.170;4.442;2023-11-18T10:54:57;8.40;99.90
25923;DHT22;13725;51.170;4.442;2023-11-18T10:57:24;8.30;99.90
25923;DHT22;13725;51.170;4.442;2023-11-18T11:00:03;8.30;99.90
25923;DHT22;13725;51.170;4.442;2023-11-18T11:02:32;8.40;99.90
25923;DHT22;13725;51.170;4.442;2023-11-18T11:05:01;8.30;99.90
25923;DHT22;13725;51.170;4.442;2023-11-18T11:07:26;8.40;99.90
25923;DHT22;13725;51.170;4.442;2023-11-18T11:09:54;8.50;99.90
